sensor_id;sensor_type;location;lat;lon;timestamp;pressure;altitude;pressure_sealevel;temperature;humidity
12636;BME280;6383;50.830;7.210;2023-05-07T00:00:08;100840.50;;;18.10;74.39
12636;BME280;6383;50.830;7.210;2023-05-07T00:02:37;100842.06;;;18.11;73.62
12636;BME280;6383;50.830;7.210;2023-05-07T00:05:05;100839.31;;;18.11;74.15
12636;BME280;6383;50.830;7.210;2023-05-07T00:07:33;100836.56;;;18.11;73.95
12636;BME280;6383;50.830;7.210;2023-05-07T00:10:02;100835.88;;;18.14;73.84
12636;BME280;6383;50.830;7.210;2023-05-07T00:12:30;100830.38;;;18.14;73.96
12636;BME280;6383;50.830;7.210;2023-05-07T00:15:03;100836.69;;;18.14;73.72
12636;BME280;6383;50.830;7.210;2023-05-07T00:17:33;100840.59;;;18.13;74.23
12636;BME280;6383;50.830;7.210;2023-05-07T00:20:00;100839.78;;;18.13;74.16
12636;BME280;6383;50.830;7.210;2023-05-07T00:22:29;100832.66;;;18.12;74.01
12636;BME280;6383;50.830;7.210;2023-05-07T00:24:59;100833.03;;;18.10;73.77
12636;BME280;6383;50.830;7.210;2023-05-07T00:27:26;100835.31;;;18.08;74.08
12636;BME280;6383;50.830;7.210;2023-05-07T00:29:55;100835.53;;;18.03;73.68
12636;BME280;6383;50.830;7.210;2023-05-07T00:32:25;100837.03;;;18.01;74.29
12636;BME280;6383;50.830;7.210;2023-05-07T00:34:54;100841.41;;;18.02;73.97
12636;BME280;6383;50.830;7.210;2023-05-07T00:37:22;100840.25;;;18.03;74.69
12636;BME280;6383;50.830;7.210;2023-05-07T00:39:50;100843.81;;;18.03;73.93
12636;BME280;6383;50.830;7.210;2023-05-07T00:42:19;100838.63;;;18.02;74.40
12636;BME280;6383;50.830;7.210;2023-05-07T00:44:48;100833.59;;;18.04;74.52
12636;BME280;6383;50.830;7.210;2023-05-07T00:47:18;100829.69;;;18.05;74.40
12636;BME280;6383;50.830;7.210;2023-05-07T00:49:47;100831.66;;;18.04;74.40
12636;BME280;6383;50.830;7.210;2023-05-07T00:52:16;100830.84;;;18.04;74.46
12636;BME280;6383;50.830;7.210;2023-05-07T00:54:46;100832.78;;;18.03;74.09
12636;BME280;6383;50.830;7.210;2023-05-07T00:57:14;100830.38;;;18.02;73.97
12636;BME280;6383;50.830;7.210;2023-05-07T00:59:44;100819.69;;;18.00;74.42
12636;BME280;6383;50.830;7.210;2023-05-07T01:02:12;100829.91;;;18.00;74.65
12636;BME280;6383;50.830;7.210;2023-05-07T01:04:41;100832.66;;;18.00;74.70
12636;BME280;6383;50.830;7.210;2023-05-07T01:07:11;100832.66;;;18.00;74.09
12636;BME280;6383;50.830;7.210;2023-05-07T01:09:40;100840.59;;;18.01;74.66
12636;BME280;6383;50.830;7.210;2023-05-07T01:12:10;100837.03;;;18.01;74.16
12636;BME280;6383;50.830;7.210;2023-05-07T01:14:38;100835.09;;;18.01;74.59
12636;BME280;6383;50.830;7.210;2023-05-07T01:17:08;100823.72;;;18.03;75.08
12636;BME280;6383;50.830;7.210;2023-05-07T01:19:37;100814.31;;;18.04;74.57
12636;BME280;6383;50.830;7.210;2023-05-07T01:22:08;100822.22;;;18.05;75.02
12636;BME280;6383;50.830;7.210;2023-05-07T01:24:39;100815.13;;;18.04;74.61
12636;BME280;6383;50.830;7.210;2023-05-07T01:27:07;100815.91;;;18.05;74.77
12636;BME280;6383;50.830;7.210;2023-05-07T01:29:36;100812.38;;;18.04;74.68
12636;BME280;6383;50.830;7.210;2023-05-07T01:32:05;100815.13;;;18.04;74.27
12636;BME280;6383;50.830;7.210;2023-05-07T01:34:33;100808.00;;;18.03;74.34
12636;BME280;6383;50.830;7.210;2023-05-07T01:37:04;100805.25;;;18.03;74.31
12636;BME280;6383;50.830;7.210;2023-05-07T01:39:33;100803.97;;;18.01;74.20
12636;BME280;6383;50.830;7.210;2023-05-07T01:42:01;100800.75;;;17.98;74.29
12636;BME280;6383;50.830;7.210;2023-05-07T01:44:29;100805.13;;;18.00;74.90
12636;BME280;6383;50.830;7.210;2023-05-07T01:46:58;100799.28;;;18.01;74.66
12636;BME280;6383;50.830;7.210;2023-05-07T01:49:27;100811.09;;;18.02;74.94
12636;BME280;6383;50.830;7.210;2023-05-07T01:51:55;100807.19;;;18.03;74.83
12636;BME280;6383;50.830;7.210;2023-05-07T01:54:25;100797.78;;;18.04;74.91
12636;BME280;6383;50.830;7.210;2023-05-07T01:56:56;100807.19;;;18.03;74.78
12636;BME280;6383;50.830;7.210;2023-05-07T01:59:27;100802.72;;;17.98;74.98
12636;BME280;6383;50.830;7.210;2023-05-07T02:01:55;100806.19;;;17.95;75.14
12636;BME280;6383;50.830;7.210;2023-05-07T02:04:24;100809.16;;;17.90;74.91
12636;BME280;6383;50.830;7.210;2023-05-07T02:06:52;100806.94;;;17.83;74.90
12636;BME280;6383;50.830;7.210;2023-05-07T02:09:20;100803.63;;;17.78;75.20
12636;BME280;6383;50.830;7.210;2023-05-07T02:11:49;100797.88;;;17.71;75.68
12636;BME280;6383;50.830;7.210;2023-05-07T02:14:16;100803.38;;;17.71;76.26
12636;BME280;6383;50.830;7.210;2023-05-07T02:16:47;100798.34;;;17.73;76.32
12636;BME280;6383;50.830;7.210;2023-05-07T02:19:16;100804.31;;;17.75;76.56
12636;BME280;6383;50.830;7.210;2023-05-07T02:21:45;100802.38;;;17.75;76.02
12636;BME280;6383;50.830;7.210;2023-05-07T02:24:14;100803.19;;;17.76;75.94
12636;BME280;6383;50.830;7.210;2023-05-07T02:26:43;100800.41;;;17.76;76.12
12636;BME280;6383;50.830;7.210;2023-05-07T02:29:12;100801.69;;;17.78;76.39
12636;BME280;6383;50.830;7.210;2023-05-07T02:31:39;100806.50;;;17.81;76.71
12636;BME280;6383;50.830;7.210;2023-05-07T02:34:08;100805.81;;;17.84;76.21
12636;BME280;6383;50.830;7.210;2023-05-07T02:36:37;100809.84;;;17.87;76.26
12636;BME280;6383;50.830;7.210;2023-05-07T02:39:04;100800.75;;;17.86;75.87
12636;BME280;6383;50.830;7.210;2023-05-07T02:41:32;100807.88;;;17.87;76.11
12636;BME280;6383;50.830;7.210;2023-05-07T02:44:00;100799.63;;;17.87;76.36
12636;BME280;6383;50.830;7.210;2023-05-07T02:46:29;100815.47;;;17.90;76.15
12636;BME280;6383;50.830;7.210;2023-05-07T02:48:59;100813.50;;;17.91;76.43
12636;BME280;6383;50.830;7.210;2023-05-07T02:51:30;100805.59;;;17.89;75.67
12636;BME280;6383;50.830;7.210;2023-05-07T02:53:59;100806.72;;;17.88;75.44
12636;BME280;6383;50.830;7.210;2023-05-07T02:56:29;100804.31;;;17.87;75.86
12636;BME280;6383;50.830;7.210;2023-05-07T02:58:58;100811.78;;;17.86;75.88
12636;BME280;6383;50.830;7.210;2023-05-07T03:01:27;100803.53;;;17.86;75.79
12636;BME280;6383;50.830;7.210;2023-05-07T03:03:56;100809.03;;;17.86;75.70
12636;BME280;6383;50.830;7.210;2023-05-07T03:06:23;100804.31;;;17.87;75.73
12636;BME280;6383;50.830;7.210;2023-05-07T03:08:52;100798.00;;;17.86;76.11
12636;BME280;6383;50.830;7.210;2023-05-07T03:11:20;100802.38;;;17.87;75.89
12636;BME280;6383;50.830;7.210;2023-05-07T03:13:48;100801.91;;;17.85;75.51
12636;BME280;6383;50.830;7.210;2023-05-07T03:16:17;100799.16;;;17.85;75.69
12636;BME280;6383;50.830;7.210;2023-05-07T03:18:44;100801.44;;;17.83;75.19
12636;BME280;6383;50.830;7.210;2023-05-07T03:21:12;100797.88;;;17.83;75.17
12636;BME280;6383;50.830;7.210;2023-05-07T03:23:39;100800.19;;;17.81;75.00
12636;BME280;6383;50.830;7.210;2023-05-07T03:26:10;100796.66;;;17.80;75.73
12636;BME280;6383;50.830;7.210;2023-05-07T03:28:39;100785.97;;;17.79;75.47
12636;BME280;6383;50.830;7.210;2023-05-07T03:31:08;100790.69;;;17.78;75.17
12636;BME280;6383;50.830;7.210;2023-05-07T03:33:48;100791.03;;;17.77;75.29
12636;BME280;6383;50.830;7.210;2023-05-07T03:36:17;100789.41;;;17.76;75.41
12636;BME280;6383;50.830;7.210;2023-05-07T03:38:45;100787.34;;;17.73;75.13
12636;BME280;6383;50.830;7.210;2023-05-07T03:41:15;100797.88;;;17.71;75.23
12636;BME280;6383;50.830;7.210;2023-05-07T03:43:43;100789.16;;;17.69;75.97
12636;BME280;6383;50.830;7.210;2023-05-07T03:46:11;100796.63;;;17.68;75.35
12636;BME280;6383;50.830;7.210;2023-05-07T03:48:40;100794.66;;;17.69;75.55
12636;BME280;6383;50.830;7.210;2023-05-07T03:51:08;100789.97;;;17.69;75.78
12636;BME280;6383;50.830;7.210;2023-05-07T03:53:37;100797.41;;;17.69;75.38
12636;BME280;6383;50.830;7.210;2023-05-07T03:56:05;100800.50;;;17.67;75.70
12636;BME280;6383;50.830;7.210;2023-05-07T03:58:34;100799.69;;;17.67;75.49
12636;BME280;6383;50.830;7.210;2023-05-07T04:01:03;100802.13;;;17.68;75.80
12636;BME280;6383;50.830;7.210;2023-05-07T04:03:31;100804.06;;;17.68;75.89
12636;BME280;6383;50.830;7.210;2023-05-07T04:06:00;100805.56;;;17.65;76.03
12636;BME280;6383;50.830;7.210;2023-05-07T04:08:29;100802.47;;;17.67;75.74
12636;BME280;6383;50.830;7.210;2023-05-07T04:10:58;100810.72;;;17.67;75.77
12636;BME280;6383;50.830;7.210;2023-05-07T04:13:27;100814.75;;;17.69;75.86
12636;BME280;6383;50.830;7.210;2023-05-07T04:15:56;100817.50;;;17.69;75.40
12636;BME280;6383;50.830;7.210;2023-05-07T04:18:24;100815.06;;;17.68;75.05
12636;BME280;6383;50.830;7.210;2023-05-07T04:20:53;100817.72;;;17.64;75.15
12636;BME280;6383;50.830;7.210;2023-05-07T04:23:21;100824.69;;;17.61;75.15
12636;BME280;6383;50.830;7.210;2023-05-07T04:25:50;100815.97;;;17.59;74.76
12636;BME280;6383;50.830;7.210;2023-05-07T04:28:19;100819.84;;;17.58;75.16
12636;BME280;6383;50.830;7.210;2023-05-07T04:30:47;100830.06;;;17.58;75.05
12636;BME280;6383;50.830;7.210;2023-05-07T04:33:17;100822.81;;;17.53;75.41
12636;BME280;6383;50.830;7.210;2023-05-07T04:35:45;100823.16;;;17.52;75.61
12636;BME280;6383;50.830;7.210;2023-05-07T04:38:12;100830.75;;;17.55;76.14
12636;BME280;6383;50.830;7.210;2023-05-07T04:40:41;100825.38;;;17.58;76.05
12636;BME280;6383;50.830;7.210;2023-05-07T04:43:09;100820.00;;;17.62;76.55
12636;BME280;6383;50.830;7.210;2023-05-07T04:45:38;100823.22;;;17.64;76.58
12636;BME280;6383;50.830;7.210;2023-05-07T04:48:09;100822.53;;;17.67;76.42
12636;BME280;6383;50.830;7.210;2023-05-07T04:50:38;100819.78;;;17.67;76.30
12636;BME280;6383;50.830;7.210;2023-05-07T04:53:07;100820.59;;;17.68;76.23
12636;BME280;6383;50.830;7.210;2023-05-07T04:55:34;100827.34;;;17.70;75.95
12636;BME280;6383;50.830;7.210;2023-05-07T04:58:03;100826.22;;;17.71;76.28
12636;BME280;6383;50.830;7.210;2023-05-07T05:00:31;100816.47;;;17.74;76.78
12636;BME280;6383;50.830;7.210;2023-05-07T05:02:59;100815.00;;;17.76;76.89
12636;BME280;6383;50.830;7.210;2023-05-07T05:05:28;100815.47;;;17.78;76.25
12636;BME280;6383;50.830;7.210;2023-05-07T05:07:58;100812.69;;;17.78;75.94
12636;BME280;6383;50.830;7.210;2023-05-07T05:10:26;100813.50;;;17.79;76.34
12636;BME280;6383;50.830;7.210;2023-05-07T05:12:55;100817.50;;;17.81;76.61
12636;BME280;6383;50.830;7.210;2023-05-07T05:15:24;100802.59;;;17.82;76.46
12636;BME280;6383;50.830;7.210;2023-05-07T05:17:53;100812.91;;;17.85;77.01
12636;BME280;6383;50.830;7.210;2023-05-07T05:20:20;100814.53;;;17.86;76.52
12636;BME280;6383;50.830;7.210;2023-05-07T05:22:49;100821.19;;;17.85;76.28
12636;BME280;6383;50.830;7.210;2023-05-07T05:25:19;100823.13;;;17.85;76.83
12636;BME280;6383;50.830;7.210;2023-05-07T05:27:48;100819.22;;;17.86;76.59
12636;BME280;6383;50.830;7.210;2023-05-07T05:30:16;100821.66;;;17.87;76.48
12636;BME280;6383;50.830;7.210;2023-05-07T05:32:44;100829.91;;;17.87;76.43
12636;BME280;6383;50.830;7.210;2023-05-07T05:35:12;100830.38;;;17.89;76.30
12636;BME280;6383;50.830;7.210;2023-05-07T05:37:39;100826.94;;;17.92;76.82
12636;BME280;6383;50.830;7.210;2023-05-07T05:40:09;100819.56;;;17.96;76.75
12636;BME280;6383;50.830;7.210;2023-05-07T05:42:39;100820.84;;;17.99;76.60
12636;BME280;6383;50.830;7.210;2023-05-07T05:45:08;100827.63;;;18.02;76.98
12636;BME280;6383;50.830;7.210;2023-05-07T05:47:37;100823.03;;;18.06;77.67
12636;BME280;6383;50.830;7.210;2023-05-07T05:50:07;100817.66;;;18.09;77.28
12636;BME280;6383;50.830;7.210;2023-05-07T05:52:36;100827.16;;;18.12;76.24
12636;BME280;6383;50.830;7.210;2023-05-07T05:55:05;100828.09;;;18.16;76.37
12636;BME280;6383;50.830;7.210;2023-05-07T05:57:33;100830.84;;;18.16;76.60
12636;BME280;6383;50.830;7.210;2023-05-07T06:00:05;100838.88;;;18.21;76.62
12636;BME280;6383;50.830;7.210;2023-05-07T06:02:33;100834.63;;;18.23;76.90
12636;BME280;6383;50.830;7.210;2023-05-07T06:05:03;100830.81;;;18.28;76.18
12636;BME280;6383;50.830;7.210;2023-05-07T06:07:32;100829.78;;;18.32;76.51
12636;BME280;6383;50.830;7.210;2023-05-07T06:10:01;100827.16;;;18.36;76.45
12636;BME280;6383;50.830;7.210;2023-05-07T06:12:29;100836.31;;;18.40;76.76
12636;BME280;6383;50.830;7.210;2023-05-07T06:14:59;100830.59;;;18.45;77.04
12636;BME280;6383;50.830;7.210;2023-05-07T06:17:28;100825.53;;;18.47;77.03
12636;BME280;6383;50.830;7.210;2023-05-07T06:19:57;100830.81;;;18.52;76.94
12636;BME280;6383;50.830;7.210;2023-05-07T06:22:26;100838.03;;;18.57;77.21
12636;BME280;6383;50.830;7.210;2023-05-07T06:24:55;100833.13;;;18.62;76.97
12636;BME280;6383;50.830;7.210;2023-05-07T06:27:24;100835.97;;;18.66;76.73
12636;BME280;6383;50.830;7.210;2023-05-07T06:29:53;100836.44;;;18.68;77.00
12636;BME280;6383;50.830;7.210;2023-05-07T06:32:22;100840.19;;;18.76;76.95
12636;BME280;6383;50.830;7.210;2023-05-07T06:34:53;100837.22;;;18.81;76.71
12636;BME280;6383;50.830;7.210;2023-05-07T06:37:21;100836.13;;;18.85;76.20
12636;BME280;6383;50.830;7.210;2023-05-07T06:39:50;100840.97;;;18.88;76.34
12636;BME280;6383;50.830;7.210;2023-05-07T06:42:17;100839.94;;;18.93;76.57
12636;BME280;6383;50.830;7.210;2023-05-07T06:44:46;100845.22;;;18.98;77.38
12636;BME280;6383;50.830;7.210;2023-05-07T06:47:13;100848.03;;;19.01;76.17
12636;BME280;6383;50.830;7.210;2023-05-07T06:49:42;100843.78;;;19.04;75.48
12636;BME280;6383;50.830;7.210;2023-05-07T06:52:12;100859.28;;;19.09;74.93
12636;BME280;6383;50.830;7.210;2023-05-07T06:54:39;100858.59;;;19.12;74.66
12636;BME280;6383;50.830;7.210;2023-05-07T06:57:08;100856.72;;;19.16;74.01
12636;BME280;6383;50.830;7.210;2023-05-07T06:59:37;100852.94;;;19.20;74.07
12636;BME280;6383;50.830;7.210;2023-05-07T07:02:06;100846.72;;;19.23;71.82
12636;BME280;6383;50.830;7.210;2023-05-07T07:04:35;100848.78;;;19.26;71.23
12636;BME280;6383;50.830;7.210;2023-05-07T07:07:04;100848.84;;;19.30;70.26
12636;BME280;6383;50.830;7.210;2023-05-07T07:09:34;100852.41;;;19.30;68.54
12636;BME280;6383;50.830;7.210;2023-05-07T07:12:03;100848.84;;;19.30;68.24
12636;BME280;6383;50.830;7.210;2023-05-07T07:14:33;100852.06;;;19.32;67.97
12636;BME280;6383;50.830;7.210;2023-05-07T07:17:02;100853.78;;;19.36;69.31
12636;BME280;6383;50.830;7.210;2023-05-07T07:19:31;100859.03;;;19.42;68.51
12636;BME280;6383;50.830;7.210;2023-05-07T07:22:00;100859.22;;;19.49;69.52
12636;BME280;6383;50.830;7.210;2023-05-07T07:24:29;100853.13;;;19.55;69.32
12636;BME280;6383;50.830;7.210;2023-05-07T07:27:00;100856.06;;;19.62;68.14
12636;BME280;6383;50.830;7.210;2023-05-07T07:29:29;100861.00;;;19.69;68.05
12636;BME280;6383;50.830;7.210;2023-05-07T07:31:58;100864.28;;;19.75;66.95
12636;BME280;6383;50.830;7.210;2023-05-07T07:34:27;100862.06;;;19.80;67.91
12636;BME280;6383;50.830;7.210;2023-05-07T07:36:56;100859.06;;;19.85;66.13
12636;BME280;6383;50.830;7.210;2023-05-07T07:39:25;100862.69;;;19.89;65.99
12636;BME280;6383;50.830;7.210;2023-05-07T07:41:54;100866.69;;;19.92;65.26
12636;BME280;6383;50.830;7.210;2023-05-07T07:44:24;100868.06;;;19.98;64.71
12636;BME280;6383;50.830;7.210;2023-05-07T07:46:53;100866.91;;;19.99;64.30
12636;BME280;6383;50.830;7.210;2023-05-07T07:49:23;100872.53;;;20.02;64.05
12636;BME280;6383;50.830;7.210;2023-05-07T07:51:52;100864.66;;;20.04;64.14
12636;BME280;6383;50.830;7.210;2023-05-07T07:54:21;100864.28;;;20.06;64.02
12636;BME280;6383;50.830;7.210;2023-05-07T07:56:49;100867.16;;;20.10;64.63
12636;BME280;6383;50.830;7.210;2023-05-07T07:59:17;100869.22;;;20.13;63.76
12636;BME280;6383;50.830;7.210;2023-05-07T08:01:49;100874.91;;;20.20;64.75
12636;BME280;6383;50.830;7.210;2023-05-07T08:04:19;100882.56;;;20.26;63.89
12636;BME280;6383;50.830;7.210;2023-05-07T08:06:48;100880.72;;;20.30;65.00
12636;BME280;6383;50.830;7.210;2023-05-07T08:09:17;100876.84;;;20.35;63.40
12636;BME280;6383;50.830;7.210;2023-05-07T08:11:46;100875.00;;;20.39;63.31
12636;BME280;6383;50.830;7.210;2023-05-07T08:14:15;100878.66;;;20.43;63.00
12636;BME280;6383;50.830;7.210;2023-05-07T08:16:44;100872.41;;;20.46;63.13
12636;BME280;6383;50.830;7.210;2023-05-07T08:19:13;100877.66;;;20.51;63.83
12636;BME280;6383;50.830;7.210;2023-05-07T08:21:41;100872.22;;;20.55;63.70
12636;BME280;6383;50.830;7.210;2023-05-07T08:24:09;100875.44;;;20.57;62.89
12636;BME280;6383;50.830;7.210;2023-05-07T08:26:38;100878.53;;;20.55;62.26
12636;BME280;6383;50.830;7.210;2023-05-07T08:29:06;100880.59;;;20.58;62.90
12636;BME280;6383;50.830;7.210;2023-05-07T08:31:33;100886.22;;;20.62;62.95
12636;BME280;6383;50.830;7.210;2023-05-07T08:34:00;100888.19;;;20.61;61.67
12636;BME280;6383;50.830;7.210;2023-05-07T08:36:31;100883.06;;;20.63;62.46
12636;BME280;6383;50.830;7.210;2023-05-07T08:39:00;100880.84;;;20.69;62.86
12636;BME280;6383;50.830;7.210;2023-05-07T08:46:31;100877.88;;;20.77;63.08
12636;BME280;6383;50.830;7.210;2023-05-07T08:49:00;100882.31;;;20.82;61.38
12636;BME280;6383;50.830;7.210;2023-05-07T08:51:31;100883.19;;;20.86;61.39
12636;BME280;6383;50.830;7.210;2023-05-07T08:54:01;100879.34;;;20.91;61.52
12636;BME280;6383;50.830;7.210;2023-05-07T08:56:32;100881.00;;;20.95;62.15
12636;BME280;6383;50.830;7.210;2023-05-07T08:59:01;100879.56;;;21.01;61.88
12636;BME280;6383;50.830;7.210;2023-05-07T09:01:31;100884.44;;;21.08;61.73
12636;BME280;6383;50.830;7.210;2023-05-07T09:04:00;100876.66;;;21.13;60.63
12636;BME280;6383;50.830;7.210;2023-05-07T09:06:27;100874.09;;;21.21;60.34
12636;BME280;6383;50.830;7.210;2023-05-07T09:08:57;100869.47;;;21.28;60.23
12636;BME280;6383;50.830;7.210;2023-05-07T09:11:28;100875.56;;;21.37;60.52
12636;BME280;6383;50.830;7.210;2023-05-07T09:13:57;100865.91;;;21.47;61.36
12636;BME280;6383;50.830;7.210;2023-05-07T09:16:29;100868.41;;;21.56;60.70
12636;BME280;6383;50.830;7.210;2023-05-07T09:18:59;100872.06;;;21.60;58.83
12636;BME280;6383;50.830;7.210;2023-05-07T09:21:28;100877.31;;;21.65;59.14
12636;BME280;6383;50.830;7.210;2023-05-07T09:23:58;100864.81;;;21.74;60.24
12636;BME280;6383;50.830;7.210;2023-05-07T09:26:28;100864.91;;;21.81;57.33
12636;BME280;6383;50.830;7.210;2023-05-07T09:28:57;100862.59;;;21.83;56.55
12636;BME280;6383;50.830;7.210;2023-05-07T09:31:26;100859.53;;;21.89;59.13
12636;BME280;6383;50.830;7.210;2023-05-07T09:33:55;100857.69;;;21.96;58.42
12636;BME280;6383;50.830;7.210;2023-05-07T09:36:24;100857.81;;;22.03;59.41
12636;BME280;6383;50.830;7.210;2023-05-07T09:38:53;100860.31;;;22.12;60.11
12636;BME280;6383;50.830;7.210;2023-05-07T09:41:26;100860.81;;;22.17;57.08
12636;BME280;6383;50.830;7.210;2023-05-07T09:43:56;100865.19;;;22.19;57.10
12636;BME280;6383;50.830;7.210;2023-05-07T09:46:27;100860.53;;;22.23;57.89
12636;BME280;6383;50.830;7.210;2023-05-07T09:48:58;100858.66;;;22.30;57.61
12636;BME280;6383;50.830;7.210;2023-05-07T09:51:32;100872.25;;;22.39;58.59
12636;BME280;6383;50.830;7.210;2023-05-07T09:54:04;100867.19;;;22.44;59.27
12636;BME280;6383;50.830;7.210;2023-05-07T09:56:35;100858.91;;;22.48;56.79
12636;BME280;6383;50.830;7.210;2023-05-07T09:59:05;100857.44;;;22.54;59.01
12636;BME280;6383;50.830;7.210;2023-05-07T10:01:36;100852.28;;;22.56;56.52
12636;BME280;6383;50.830;7.210;2023-05-07T10:04:05;100848.78;;;22.59;55.44
12636;BME280;6383;50.830;7.210;2023-05-07T10:06:35;100843.28;;;22.63;55.45
12636;BME280;6383;50.830;7.210;2023-05-07T10:09:03;100854.06;;;22.68;56.81
12636;BME280;6383;50.830;7.210;2023-05-07T10:11:33;100857.28;;;22.73;56.33
12636;BME280;6383;50.830;7.210;2023-05-07T10:14:04;100852.63;;;22.77;55.53
12636;BME280;6383;50.830;7.210;2023-05-07T10:16:35;100853.13;;;22.83;54.72
12636;BME280;6383;50.830;7.210;2023-05-07T10:19:05;100845.97;;;22.85;54.90
12636;BME280;6383;50.830;7.210;2023-05-07T10:21:36;100841.28;;;22.90;54.92
12636;BME280;6383;50.830;7.210;2023-05-07T10:24:06;100846.09;;;22.93;54.34
12636;BME280;6383;50.830;7.210;2023-05-07T10:26:42;100850.53;;;22.97;53.89
12636;BME280;6383;50.830;7.210;2023-05-07T10:29:21;100853.38;;;23.04;54.95
12636;BME280;6383;50.830;7.210;2023-05-07T10:31:59;100837.25;;;23.13;52.70
12636;BME280;6383;50.830;7.210;2023-05-07T10:34:37;100844.09;;;23.23;54.31
12636;BME280;6383;50.830;7.210;2023-05-07T10:37:06;100844.56;;;23.32;55.18
12636;BME280;6383;50.830;7.210;2023-05-07T10:39:35;100844.63;;;23.36;52.42
12636;BME280;6383;50.830;7.210;2023-05-07T10:42:09;100842.72;;;23.43;51.96
12636;BME280;6383;50.830;7.210;2023-05-07T10:44:38;100851.13;;;23.50;50.41
12636;BME280;6383;50.830;7.210;2023-05-07T10:47:07;100846.81;;;23.53;50.47
12636;BME280;6383;50.830;7.210;2023-05-07T10:49:46;100846.44;;;23.54;49.81
12636;BME280;6383;50.830;7.210;2023-05-07T10:52:34;100842.47;;;23.55;48.45
12636;BME280;6383;50.830;7.210;2023-05-07T10:55:20;100840.94;;;23.62;48.47
12636;BME280;6383;50.830;7.210;2023-05-07T10:57:50;100841.88;;;23.73;50.86
12636;BME280;6383;50.830;7.210;2023-05-07T11:00:41;100837.94;;;23.81;50.64
12636;BME280;6383;50.830;7.210;2023-05-07T11:03:11;100835.22;;;23.84;49.68
12636;BME280;6383;50.830;7.210;2023-05-07T11:05:41;100835.25;;;23.88;49.41
12636;BME280;6383;50.830;7.210;2023-05-07T11:08:10;100830.13;;;23.94;51.91
12636;BME280;6383;50.830;7.210;2023-05-07T11:10:52;100833.34;;;23.99;50.43
12636;BME280;6383;50.830;7.210;2023-05-07T11:13:42;100829.44;;;24.04;50.23
12636;BME280;6383;50.830;7.210;2023-05-07T11:16:18;100826.69;;;24.11;48.19
12636;BME280;6383;50.830;7.210;2023-05-07T11:18:47;100819.59;;;24.17;49.00
12636;BME280;6383;50.830;7.210;2023-05-07T11:21:33;100815.63;;;24.21;47.54
12636;BME280;6383;50.830;7.210;2023-05-07T11:24:04;100814.88;;;24.24;48.09
12636;BME280;6383;50.830;7.210;2023-05-07T11:26:46;100816.94;;;24.31;47.11
12636;BME280;6383;50.830;7.210;2023-05-07T11:29:17;100817.75;;;24.35;47.80
12636;BME280;6383;50.830;7.210;2023-05-07T11:31:49;100817.34;;;24.33;46.02
12636;BME280;6383;50.830;7.210;2023-05-07T11:34:21;100808.59;;;24.31;45.04
12636;BME280;6383;50.830;7.210;2023-05-07T11:36:52;100812.53;;;24.27;45.81
12636;BME280;6383;50.830;7.210;2023-05-07T11:39:26;100813.31;;;24.27;46.49
12636;BME280;6383;50.830;7.210;2023-05-07T11:41:55;100811.34;;;24.28;46.84
12636;BME280;6383;50.830;7.210;2023-05-07T11:44:22;100816.09;;;24.27;46.62
12636;BME280;6383;50.830;7.210;2023-05-07T11:46:52;100816.50;;;24.25;45.34
12636;BME280;6383;50.830;7.210;2023-05-07T11:49:19;100806.16;;;24.26;46.47
12636;BME280;6383;50.830;7.210;2023-05-07T11:51:47;100809.34;;;24.28;45.49
12636;BME280;6383;50.830;7.210;2023-05-07T11:54:16;100811.00;;;24.33;46.80
12636;BME280;6383;50.830;7.210;2023-05-07T11:56:47;100807.03;;;24.37;46.92
12636;BME280;6383;50.830;7.210;2023-05-07T11:59:18;100807.06;;;24.44;46.88
12636;BME280;6383;50.830;7.210;2023-05-07T12:01:47;100811.88;;;24.51;46.27
12636;BME280;6383;50.830;7.210;2023-05-07T12:04:20;100804.34;;;24.55;44.35
12636;BME280;6383;50.830;7.210;2023-05-07T12:06:48;100810.34;;;24.60;46.60
12636;BME280;6383;50.830;7.210;2023-05-07T12:09:18;100805.56;;;24.65;45.10
12636;BME280;6383;50.830;7.210;2023-05-07T12:11:48;100811.97;;;24.69;46.18
12636;BME280;6383;50.830;7.210;2023-05-07T12:14:17;100806.41;;;24.69;46.82
12636;BME280;6383;50.830;7.210;2023-05-07T12:16:45;100806.78;;;24.67;46.06
12636;BME280;6383;50.830;7.210;2023-05-07T12:19:14;100808.78;;;24.67;46.85
12636;BME280;6383;50.830;7.210;2023-05-07T12:21:43;100817.50;;;24.65;47.50
12636;BME280;6383;50.830;7.210;2023-05-07T12:24:14;100813.13;;;24.60;45.61
12636;BME280;6383;50.830;7.210;2023-05-07T12:26:43;100815.88;;;24.57;45.53
12636;BME280;6383;50.830;7.210;2023-05-07T12:29:13;100818.66;;;24.53;46.89
12636;BME280;6383;50.830;7.210;2023-05-07T12:31:42;100819.41;;;24.50;46.70
12636;BME280;6383;50.830;7.210;2023-05-07T12:34:10;100824.97;;;24.47;45.20
12636;BME280;6383;50.830;7.210;2023-05-07T12:36:38;100817.00;;;24.42;44.92
12636;BME280;6383;50.830;7.210;2023-05-07T12:39:08;100829.69;;;24.39;46.51
12636;BME280;6383;50.830;7.210;2023-05-07T12:41:52;100821.31;;;24.36;46.77
12636;BME280;6383;50.830;7.210;2023-05-07T12:44:22;100828.47;;;24.33;47.10
12636;BME280;6383;50.830;7.210;2023-05-07T12:46:51;100823.28;;;24.28;46.60
12636;BME280;6383;50.830;7.210;2023-05-07T12:49:19;100824.03;;;24.25;46.70
12636;BME280;6383;50.830;7.210;2023-05-07T12:51:51;100826.75;;;24.21;46.38
12636;BME280;6383;50.830;7.210;2023-05-07T12:54:29;100827.94;;;24.17;46.92
12636;BME280;6383;50.830;7.210;2023-05-07T12:57:01;100823.53;;;24.12;46.28
12636;BME280;6383;50.830;7.210;2023-05-07T12:59:33;100824.28;;;24.09;47.44
12636;BME280;6383;50.830;7.210;2023-05-07T13:02:03;100831.00;;;24.05;47.04
12636;BME280;6383;50.830;7.210;2023-05-07T13:04:31;100833.38;;;24.03;46.82
12636;BME280;6383;50.830;7.210;2023-05-07T13:06:58;100839.28;;;23.98;46.89
12636;BME280;6383;50.830;7.210;2023-05-07T13:09:29;100841.19;;;23.90;46.63
12636;BME280;6383;50.830;7.210;2023-05-07T13:11:58;100840.41;;;23.86;48.26
12636;BME280;6383;50.830;7.210;2023-05-07T13:14:29;100845.91;;;23.82;48.72
12636;BME280;6383;50.830;7.210;2023-05-07T13:16:58;100840.69;;;23.77;50.24